createdAt,value
2024-02-15T00:03:58.686Z,30.25
2024-02-15T00:09:00.272Z,34.53
2024-02-15T00:14:01.782Z,39.05
2024-02-15T00:19:03.385Z,40.35
2024-02-15T00:24:05.192Z,33.53
2024-02-15T00:29:06.717Z,35.88
2024-02-15T00:34:08.331Z,30.52
2024-02-15T00:39:10.282Z,30.70
2024-02-15T00:44:12.269Z,34.13
2024-02-15T00:49:13.968Z,32.15
2024-02-15T00:54:16.692Z,35.50
2024-02-15T00:59:18.194Z,34.17
2024-02-15T01:04:19.994Z,40.58
2024-02-15T01:09:22.919Z,42.17
2024-02-15T01:14:24.409Z,39.63
2024-02-15T01:19:25.932Z,37.63
2024-02-15T01:24:27.397Z,35.80
2024-02-15T01:29:28.927Z,38.58
2024-02-15T01:34:30.602Z,38.35
2024-02-15T01:39:32.129Z,33.95
2024-02-15T01:44:33.637Z,36.80
2024-02-15T01:49:35.194Z,35.40
2024-02-15T01:54:37.218Z,40.92
2024-02-15T01:59:38.738Z,41.95
2024-02-15T02:04:40.858Z,40.90
2024-02-15T02:09:42.414Z,36.45
2024-02-15T02:14:43.904Z,39.60
2024-02-15T02:19:45.680Z,38.53
2024-02-15T02:25:03.346Z,39.10
2024-02-15T02:30:05.962Z,35.45
2024-02-15T02:35:07.714Z,32.50
2024-02-15T02:40:10.223Z,35.65
2024-02-15T02:45:11.772Z,40.67
2024-02-15T02:50:14.109Z,32.85
2024-02-15T02:55:16.433Z,34.55
2024-02-15T03:00:18.583Z,43.13
2024-02-15T03:05:20.195Z,32.90
2024-02-15T03:10:21.968Z,34.67
2024-02-15T03:15:23.491Z,40.08
2024-02-15T03:20:25.910Z,38.47
2024-02-15T03:25:28.984Z,42.58
2024-02-15T03:30:32.406Z,42.30
2024-02-15T03:35:34.137Z,53.78
2024-02-15T03:40:35.674Z,50.85
2024-02-15T03:45:37.154Z,47.95
2024-02-15T03:50:38.667Z,46.85
2024-02-15T03:55:40.222Z,45.03
2024-02-15T04:00:41.765Z,46.33
2024-02-15T04:05:43.360Z,48.20
2024-02-15T04:10:44.895Z,41.53
2024-02-15T04:15:46.360Z,44.38
2024-02-15T04:20:47.874Z,47.05
2024-02-15T04:25:49.462Z,45.40
2024-02-15T04:30:51.460Z,46.65
2024-02-15T04:35:52.998Z,41.38
2024-02-15T04:40:55.050Z,50.08
2024-02-15T04:45:57.796Z,45.30
2024-02-15T04:50:59.280Z,52.13
2024-02-15T04:56:00.746Z,45.67
2024-02-15T05:01:02.294Z,55.85
2024-02-15T05:06:04.107Z,50.30
2024-02-15T05:11:05.601Z,55.88
2024-02-15T05:16:07.321Z,61.58
2024-02-15T05:21:08.842Z,53.78
2024-02-15T05:26:10.393Z,52.85
2024-02-15T05:31:13.024Z,43.63
2024-02-15T05:36:15.422Z,52.47
2024-02-15T05:41:16.898Z,51.08
2024-02-15T05:46:18.404Z,42.72
2024-02-15T05:51:20.052Z,38.38
2024-02-15T05:56:21.612Z,38.13
2024-02-15T06:01:23.127Z,38.78
2024-02-15T06:06:24.770Z,45.40
2024-02-15T06:11:26.343Z,36.55
2024-02-15T06:16:27.859Z,35.30
2024-02-15T06:21:29.463Z,47.90
2024-02-15T06:26:30.957Z,47.13
2024-02-15T06:31:32.445Z,50.53
2024-02-15T06:36:33.969Z,45.90
2024-02-15T06:41:35.474Z,45.45
2024-02-15T06:46:37.160Z,42.90
2024-02-15T06:51:38.712Z,49.72
2024-02-15T06:56:40.617Z,45.42
2024-02-15T07:01:42.953Z,46.97
2024-02-15T07:06:44.490Z,41.63
2024-02-15T07:11:48.704Z,38.53
2024-02-15T07:16:51.073Z,37.13
2024-02-15T07:21:52.577Z,29.27
2024-02-15T07:26:54.127Z,26.48
2024-02-15T07:31:55.627Z,23.55
2024-02-15T07:36:57.362Z,24.88
2024-02-15T07:41:58.893Z,29.17
2024-02-15T07:47:00.380Z,29.30
2024-02-15T07:52:02.721Z,25.95
2024-02-15T07:57:04.443Z,29.88
2024-02-15T08:02:06.129Z,31.58
2024-02-15T08:07:08.057Z,35.40
2024-02-15T08:12:09.706Z,38.20
2024-02-15T08:17:11.264Z,40.10
2024-02-15T08:22:12.784Z,46.22
2024-02-15T08:27:14.580Z,48.22
2024-02-15T08:32:16.099Z,50.25
2024-02-15T08:37:17.978Z,49.08
2024-02-15T08:42:19.584Z,50.15
2024-02-15T08:47:21.143Z,42.05
2024-02-15T08:52:22.662Z,44.95
2024-02-15T08:57:25.265Z,42.50
2024-02-15T09:02:26.790Z,36.30
2024-02-15T09:07:28.341Z,41.92
2024-02-15T09:12:29.917Z,31.13
2024-02-15T09:17:31.469Z,30.42
2024-02-15T09:22:33.735Z,31.85
2024-02-15T09:27:35.224Z,26.40
2024-02-15T09:32:37.507Z,32.20
2024-02-15T09:37:43.620Z,31.23
2024-02-15T09:42:45.925Z,28.48
2024-02-15T09:47:48.213Z,33.00
2024-02-15T09:52:51.931Z,32.65
2024-02-15T09:57:53.423Z,31.88
2024-02-15T10:02:55.100Z,31.08
2024-02-15T10:07:56.606Z,29.48
2024-02-15T10:12:58.228Z,33.90
2024-02-15T10:18:00.585Z,29.83
2024-02-15T10:23:08.267Z,31.73
2024-02-15T10:28:11.622Z,29.92
2024-02-15T10:33:30.673Z,28.35
2024-02-15T10:38:32.553Z,33.58
2024-02-15T10:43:34.602Z,27.88
2024-02-15T10:48:36.691Z,29.38
2024-02-15T10:53:45.404Z,29.70
2024-02-15T10:59:03.225Z,29.05
2024-02-15T11:04:08.814Z,30.30
2024-02-15T11:14:29.092Z,35.95
2024-02-15T11:19:36.584Z,38.60
2024-02-15T11:24:38.484Z,34.70
2024-02-15T11:29:56.036Z,35.83
2024-02-15T11:35:04.726Z,36.30
2024-02-15T11:40:06.753Z,44.90
2024-02-15T11:45:08.608Z,48.22
2024-02-15T11:50:11.309Z,39.88
2024-02-15T11:55:13.503Z,46.03
2024-02-15T12:00:24.845Z,48.92
2024-02-15T12:05:26.450Z,42.42
2024-02-15T12:10:28.049Z,41.28
2024-02-15T12:15:29.547Z,36.47
2024-02-15T12:20:31.218Z,35.13
2024-02-15T12:25:32.706Z,35.58
2024-02-15T12:30:35.524Z,33.05
2024-02-15T12:35:37.554Z,29.70
2024-02-15T12:40:42.092Z,30.08
2024-02-15T12:45:45.277Z,24.15
2024-02-15T12:50:46.787Z,22.02
2024-02-15T12:55:56.873Z,21.15
2024-02-15T13:00:58.579Z,19.00
2024-02-15T13:06:00.150Z,20.27
2024-02-15T13:11:01.718Z,20.40
2024-02-15T13:16:03.397Z,20.08
2024-02-15T13:21:05.274Z,21.17
2024-02-15T13:26:06.742Z,22.48
2024-02-15T13:31:08.229Z,20.13
2024-02-15T13:36:09.810Z,20.35
2024-02-15T13:41:11.293Z,20.10
2024-02-15T13:46:12.830Z,21.23
2024-02-15T13:51:14.316Z,22.33
2024-02-15T13:56:15.776Z,22.40
2024-02-15T14:01:17.298Z,21.67
2024-02-15T14:06:19.217Z,24.75
2024-02-15T14:11:20.742Z,23.60
2024-02-15T14:16:22.256Z,19.83
2024-02-15T14:21:24.276Z,19.58
2024-02-15T14:26:25.845Z,18.90
2024-02-15T14:31:27.323Z,21.65
2024-02-15T14:36:28.959Z,21.88
2024-02-15T14:41:34.008Z,21.75
2024-02-15T14:46:35.629Z,19.35
2024-02-15T14:51:37.317Z,21.00
2024-02-15T14:56:39.183Z,21.50
2024-02-15T15:01:40.856Z,22.25
2024-02-15T15:06:45.804Z,17.40
2024-02-15T15:11:47.385Z,20.43
2024-02-15T15:16:48.877Z,19.65
2024-02-15T15:21:50.342Z,16.70
2024-02-15T15:26:51.832Z,16.27
2024-02-15T15:31:53.637Z,16.83
2024-02-15T15:36:55.077Z,17.00
2024-02-15T15:41:56.587Z,18.55
2024-02-15T15:46:58.074Z,18.42
2024-02-15T15:51:59.622Z,17.70
2024-02-15T15:57:01.095Z,17.35
2024-02-15T16:02:02.640Z,16.15
2024-02-15T16:07:04.388Z,17.10
2024-02-15T16:12:05.958Z,15.10
2024-02-15T16:17:08.411Z,16.77
2024-02-15T16:22:10.221Z,19.50
2024-02-15T16:27:11.763Z,18.95
2024-02-15T16:32:13.268Z,18.85
2024-02-15T16:37:14.736Z,21.65
2024-02-15T16:42:16.241Z,20.77
2024-02-15T16:47:18.028Z,21.40
2024-02-15T16:52:19.481Z,18.95
2024-02-15T16:57:21.201Z,24.00
2024-02-15T17:02:22.705Z,23.25
2024-02-15T17:07:24.219Z,23.38
2024-02-15T17:12:25.673Z,27.13
2024-02-15T17:17:27.169Z,26.95
2024-02-15T17:22:28.676Z,25.55
2024-02-15T17:27:30.138Z,31.25
2024-02-15T17:32:31.671Z,25.88
2024-02-15T17:37:33.173Z,28.80
2024-02-15T17:42:34.669Z,29.10
2024-02-15T17:47:37.581Z,25.15
2024-02-15T17:52:39.159Z,28.95
2024-02-15T17:57:41.596Z,30.13
2024-02-15T18:02:44.118Z,30.58
2024-02-15T18:07:46.702Z,27.85
2024-02-15T18:12:48.216Z,33.03
2024-02-15T18:17:50.596Z,31.15
2024-02-15T18:22:52.154Z,29.83
2024-02-15T18:27:53.662Z,28.23
2024-02-15T18:32:55.261Z,30.40
2024-02-15T18:37:56.841Z,28.35
2024-02-15T18:42:58.320Z,26.95
2024-02-15T18:48:00.267Z,27.88
2024-02-15T18:53:02.135Z,25.92
2024-02-15T18:58:03.735Z,24.30
2024-02-15T19:03:05.447Z,28.95
2024-02-15T19:08:07.391Z,23.20
2024-02-15T19:13:08.907Z,22.95
2024-02-15T19:18:13.373Z,22.25
2024-02-15T19:23:14.998Z,26.50
2024-02-15T19:28:16.479Z,25.23
2024-02-15T19:33:17.970Z,27.80
2024-02-15T19:38:19.532Z,20.02
2024-02-15T19:43:21.027Z,22.98
2024-02-15T19:48:22.607Z,23.90
2024-02-15T19:53:24.212Z,22.02
2024-02-15T19:58:25.682Z,21.73
2024-02-15T20:03:27.337Z,26.20
2024-02-15T20:08:29.007Z,18.02
2024-02-15T20:13:30.461Z,19.30
2024-02-15T20:18:36.002Z,17.48
2024-02-15T20:23:40.940Z,17.13
2024-02-15T20:28:42.660Z,18.97
2024-02-15T20:33:44.407Z,13.38
2024-02-15T20:38:46.015Z,15.25
2024-02-15T20:43:47.488Z,14.48
2024-02-15T20:48:49.073Z,10.95
2024-02-15T20:53:52.353Z,11.68
2024-02-15T20:58:53.869Z,15.75
2024-02-15T21:03:55.393Z,10.57
2024-02-15T21:08:56.940Z,9.93
2024-02-15T21:13:58.593Z,11.02
2024-02-15T21:19:00.213Z,13.02
2024-02-15T21:24:01.896Z,8.75
2024-02-15T21:29:03.670Z,9.57
2024-02-15T21:34:05.414Z,10.10
2024-02-15T21:39:07.093Z,9.25
2024-02-15T21:44:08.895Z,12.40
2024-02-15T21:49:11.465Z,10.50
2024-02-15T21:54:13.310Z,9.45
2024-02-15T21:59:16.252Z,12.48
2024-02-15T22:04:18.020Z,8.40
2024-02-15T22:09:19.626Z,9.15
2024-02-15T22:14:21.119Z,8.73
2024-02-15T22:19:22.753Z,10.40
2024-02-15T22:24:24.363Z,8.65
2024-02-15T22:29:25.953Z,11.10
2024-02-15T22:34:27.530Z,7.78
2024-02-15T22:39:29.642Z,8.38
2024-02-15T22:44:31.222Z,8.73
2024-02-15T22:49:33.297Z,9.20
2024-02-15T22:54:34.880Z,7.28
2024-02-15T22:59:36.367Z,9.23
2024-02-15T23:04:38.048Z,8.10
2024-02-15T23:09:39.629Z,8.07
2024-02-15T23:14:41.112Z,9.30
2024-02-15T23:19:42.695Z,9.80
2024-02-15T23:24:44.235Z,9.40
2024-02-15T23:29:45.889Z,8.75
2024-02-15T23:34:47.421Z,8.23
2024-02-15T23:39:48.879Z,9.35
2024-02-15T23:44:50.500Z,7.15
2024-02-15T23:49:52.061Z,8.30
2024-02-15T23:54:53.634Z,8.18
2024-02-15T23:59:55.561Z,10.70
